Columbia, Connecticut
Current Conditions -  °F | °C
As of 10:52 AM on Saturday 20 Dec 2014 (Local Time) from KIJD Reporting Station
Overcast Overcast  
Wind Chill: -4°   Ceiling: 2700
Heat Index:   Visibility: 10mi
Dew Point: -6°   Wind: 7mph
Humidity: 64%   Direction: 30°NNE
Pressure: 30.27"   Gusts: NA
Location:  41.7°N, 72.3°W
Report Text: KIJD 201552Z AUTO 03006KT 10SM OVC027 00/M06 A3027 RMK AO2 SLP251 T00001061
Loading
Personal Weather Stations






























Interactive Weather Map New forecast layout! Learn more

10-Day Weather Forecast

Advertisements
Track Severe Weather on mobile